LPAZ/SMA METAR and TAF weather

Enter ICAO airport designator
Station Type Date Time Source
LPAZ METAR 2020/07/15 01:00 UTC NOAA

LPAZ 150100Z 10008KT 070V140 9999 FEW010 20/17 Q1027


Station Type Date Time Source
LPAZ Decoded METAR 2020/07/15 01:00 UTC NOAA

Santa Maria Acores , Portugal (LPAZ) 36-58N 025-10W 100M
Jul 14, 2020 - 09:00 PM EDT / 2020.07.15 0100 UTC
Wind: from the E (100 degrees) at 9 MPH (8 KT) (direction variable):0
Visibility: greater than 7 mile(s):0
Sky conditions: mostly clear
Temperature: 68 F (20 C)
Dew Point: 62 F (17 C)
Relative Humidity: 82%
Pressure (altimeter): 30.33 in. Hg (1027 hPa)
ob: LPAZ 150100Z 10008KT 070V140 9999 FEW010 20/17 Q1027
cycle: 1

Station Type Date Time Source
LPAZ TAF 2020/07/14 18:18 UTC NOAA

TAF TAF LPAZ 141700Z 1418/1524 07010KT 9999 FEW020
BECMG 1422/1501 FEW018 BKN030 PROB40
TEMPO 1503/1509 BKN013

Example: see airport list